createdAt,value
2019-03-20T00:01:43.465Z,81.90
2019-03-20T00:04:06.490Z,82.46
2019-03-20T00:06:37.802Z,82.52
2019-03-20T00:09:09.395Z,82.76
2019-03-20T00:11:40.533Z,82.53
2019-03-20T00:14:11.661Z,82.53
2019-03-20T00:16:43.082Z,82.53
2019-03-20T00:19:13.899Z,82.40
2019-03-20T00:21:45.167Z,82.56
2019-03-20T00:24:25.560Z,82.67
2019-03-20T00:26:57.175Z,82.53
2019-03-20T00:29:28.474Z,82.45
2019-03-20T00:32:01.329Z,82.44
2019-03-20T00:34:33.080Z,82.54
2019-03-20T00:37:04.208Z,83.01
2019-03-20T00:39:35.504Z,83.00
2019-03-20T00:42:06.964Z,82.98
2019-03-20T00:44:37.977Z,82.87
2019-03-20T00:47:09.262Z,82.49
2019-03-20T00:49:40.307Z,82.44
2019-03-20T00:52:11.396Z,82.43
2019-03-20T00:54:42.815Z,82.43
2019-03-20T00:57:14.148Z,82.58
2019-03-20T00:59:45.679Z,82.18
2019-03-20T01:02:16.894Z,81.75
2019-03-20T01:04:48.027Z,81.65
2019-03-20T01:07:19.816Z,81.98
2019-03-20T01:09:51.165Z,81.90
2019-03-20T01:12:22.360Z,81.61
2019-03-20T01:14:53.754Z,81.59
2019-03-20T01:17:24.740Z,81.49
2019-03-20T01:19:55.813Z,81.80
2019-03-20T01:22:26.923Z,82.22
2019-03-20T01:24:58.415Z,82.17
2019-03-20T01:27:30.085Z,82.50
2019-03-20T01:30:01.565Z,82.36
2019-03-20T01:32:32.320Z,82.42
2019-03-20T01:35:03.647Z,82.42
2019-03-20T01:37:35.048Z,81.99
2019-03-20T01:40:07.983Z,81.93
2019-03-20T01:42:39.133Z,81.82
2019-03-20T01:45:11.337Z,81.70
2019-03-20T01:47:42.267Z,81.82
2019-03-20T01:50:13.276Z,81.54
2019-03-20T01:52:44.417Z,81.81
2019-03-20T01:55:15.391Z,81.90
2019-03-20T01:57:46.779Z,81.90
2019-03-20T02:00:18.155Z,82.03
2019-03-20T02:02:49.576Z,82.43
2019-03-20T02:05:20.424Z,83.08
2019-03-20T02:07:51.990Z,82.87
2019-03-20T02:10:23.140Z,83.24
2019-03-20T02:12:54.201Z,82.56
2019-03-20T02:15:25.449Z,81.79
2019-03-20T02:17:56.591Z,82.15
2019-03-20T02:20:27.854Z,81.84
2019-03-20T02:22:59.068Z,81.87
2019-03-20T02:25:32.376Z,82.54
2019-03-20T02:28:04.061Z,82.54
2019-03-20T02:30:35.270Z,81.90
2019-03-20T02:33:06.818Z,82.95
2019-03-20T02:35:50.586Z,82.95
2019-03-20T02:38:10.941Z,82.93
2019-03-20T02:40:41.789Z,82.22
2019-03-20T02:43:13.037Z,82.11
2019-03-20T02:45:44.254Z,82.46
2019-03-20T02:48:15.637Z,82.38
2019-03-20T02:50:47.042Z,82.76
2019-03-20T02:53:18.216Z,82.40
2019-03-20T02:55:49.321Z,81.80
2019-03-20T02:58:20.274Z,81.80
2019-03-20T03:00:51.293Z,81.76
2019-03-20T03:03:22.050Z,81.54
2019-03-20T03:06:05.921Z,81.52
2019-03-20T03:08:25.885Z,81.67
2019-03-20T03:10:57.134Z,81.59
2019-03-20T03:13:27.967Z,81.20
2019-03-20T03:15:59.065Z,81.77
2019-03-20T03:18:30.098Z,81.68
2019-03-20T03:21:01.345Z,81.68
2019-03-20T03:23:32.488Z,82.52
2019-03-20T03:26:03.634Z,82.33
2019-03-20T03:28:34.833Z,82.50
2019-03-20T03:31:06.905Z,82.42
2019-03-20T03:33:38.060Z,82.42
2019-03-20T03:36:20.614Z,82.13
2019-03-20T03:38:42.117Z,82.08
2019-03-20T03:41:13.167Z,81.99
2019-03-20T03:43:44.170Z,82.03
2019-03-20T03:46:15.002Z,81.72
2019-03-20T03:48:45.879Z,81.95
2019-03-20T03:51:16.968Z,81.91
2019-03-20T03:53:49.136Z,82.68
2019-03-20T03:56:20.297Z,82.36
2019-03-20T03:58:51.659Z,82.21
2019-03-20T04:01:23.156Z,81.97
2019-03-20T04:03:54.623Z,81.90
2019-03-20T04:06:35.429Z,81.78
2019-03-20T04:08:58.859Z,81.83
2019-03-20T04:11:30.365Z,81.93
2019-03-20T04:14:01.312Z,82.16
2019-03-20T04:16:32.306Z,82.43
2019-03-20T04:19:03.321Z,82.96
2019-03-20T04:21:34.947Z,82.78
2019-03-20T04:24:07.175Z,82.66
2019-03-20T04:26:38.298Z,82.45
2019-03-20T04:29:09.510Z,82.56
2019-03-20T04:31:40.716Z,82.75
2019-03-20T04:34:11.981Z,82.90
2019-03-20T04:36:47.548Z,82.48
2019-03-20T04:39:15.606Z,82.37
2019-03-20T04:41:46.277Z,82.38
2019-03-20T04:44:17.535Z,82.09
2019-03-20T04:46:49.089Z,81.88
2019-03-20T04:49:20.695Z,82.08
2019-03-20T04:51:52.014Z,81.85
2019-03-20T04:54:23.248Z,82.22
2019-03-20T04:56:54.498Z,82.11
2019-03-20T04:59:25.715Z,82.08
2019-03-20T05:01:57.069Z,81.85
2019-03-20T05:04:29.041Z,82.18
2019-03-20T05:07:00.172Z,82.27
2019-03-20T05:09:31.748Z,82.05
2019-03-20T05:12:03.052Z,81.94
2019-03-20T05:14:34.059Z,82.14
2019-03-20T05:17:05.175Z,82.10
2019-03-20T05:19:36.254Z,82.00
2019-03-20T05:22:07.251Z,82.32
2019-03-20T05:24:38.192Z,82.71
2019-03-20T05:27:09.404Z,83.15
2019-03-20T05:29:40.711Z,82.66
2019-03-20T05:32:11.638Z,82.24
2019-03-20T05:34:42.655Z,81.97
2019-03-20T05:37:14.012Z,82.50
2019-03-20T05:39:45.707Z,82.45
2019-03-20T05:42:16.607Z,82.17
2019-03-20T05:44:47.667Z,82.43
2019-03-20T05:47:19.075Z,82.29
2019-03-20T05:49:50.430Z,82.47
2019-03-20T05:52:21.636Z,82.08
2019-03-20T05:54:52.700Z,81.81
2019-03-20T05:57:24.126Z,81.73
2019-03-20T05:59:55.174Z,81.78
2019-03-20T06:02:26.612Z,81.77
2019-03-20T06:04:58.264Z,81.68
2019-03-20T06:07:29.563Z,82.01
2019-03-20T06:10:01.234Z,83.57
2019-03-20T06:12:32.514Z,83.19
2019-03-20T06:15:03.961Z,83.19
2019-03-20T06:17:35.818Z,84.06
2019-03-20T06:20:11.101Z,85.20
2019-03-20T06:22:43.753Z,85.12
2019-03-20T06:25:16.619Z,85.29
2019-03-20T06:27:49.475Z,86.26
2019-03-20T06:30:22.453Z,86.53
2019-03-20T06:32:53.941Z,86.60
2019-03-20T06:35:25.052Z,86.63
2019-03-20T06:37:56.563Z,86.79
2019-03-20T06:40:28.200Z,87.21
2019-03-20T06:42:59.359Z,87.24
2019-03-20T06:45:33.572Z,87.24
2019-03-20T06:48:04.736Z,86.74
2019-03-20T06:50:35.777Z,86.56
2019-03-20T06:53:07.829Z,86.65
2019-03-20T06:55:39.239Z,86.71
2019-03-20T06:58:11.157Z,86.45
2019-03-20T07:00:47.139Z,85.35
2019-03-20T07:03:22.010Z,85.35
2019-03-20T07:05:56.490Z,84.67
2019-03-20T07:08:31.122Z,84.67
2019-03-20T07:11:02.148Z,84.00
2019-03-20T07:13:33.069Z,84.00
2019-03-20T07:16:05.782Z,84.01
2019-03-20T07:18:36.631Z,82.86
2019-03-20T07:21:08.861Z,83.30
2019-03-20T07:23:40.338Z,82.90
2019-03-20T07:26:11.577Z,82.90
2019-03-20T07:28:42.857Z,82.16
2019-03-20T07:31:15.648Z,82.07
2019-03-20T07:33:46.969Z,82.10
2019-03-20T07:36:18.140Z,81.72
2019-03-20T07:38:49.470Z,80.63
2019-03-20T07:41:20.808Z,81.12
2019-03-20T07:43:51.864Z,80.93
2019-03-20T07:46:23.240Z,79.89
2019-03-20T07:48:54.657Z,79.56
2019-03-20T07:51:25.850Z,79.24
2019-03-20T07:53:57.620Z,78.93
2019-03-20T07:56:28.396Z,78.31
2019-03-20T07:58:59.565Z,78.13
2019-03-20T08:01:30.800Z,77.68
2019-03-20T08:04:02.282Z,77.52
2019-03-20T08:06:35.069Z,76.21
2019-03-20T08:09:07.520Z,76.16
2019-03-20T08:11:38.823Z,75.70
2019-03-20T08:14:09.761Z,75.59
2019-03-20T08:16:41.251Z,75.17
2019-03-20T08:19:13.631Z,74.40
2019-03-20T08:21:44.388Z,74.53
2019-03-20T08:24:16.079Z,74.20
2019-03-20T08:26:47.667Z,73.20
2019-03-20T08:29:19.362Z,73.47
2019-03-20T08:31:51.228Z,73.24
2019-03-20T08:34:22.545Z,72.78
2019-03-20T08:36:53.774Z,72.31
2019-03-20T08:39:24.796Z,71.95
2019-03-20T08:41:56.058Z,71.26
2019-03-20T08:44:27.517Z,71.24
2019-03-20T08:46:59.465Z,70.80
2019-03-20T08:49:30.714Z,70.49
2019-03-20T08:52:02.026Z,70.10
2019-03-20T08:54:33.293Z,70.06
2019-03-20T08:57:04.457Z,69.72
2019-03-20T08:59:36.306Z,68.97
2019-03-20T09:02:07.740Z,69.33
2019-03-20T09:04:39.101Z,68.18
2019-03-20T09:07:10.588Z,68.13
2019-03-20T09:09:42.232Z,67.57
2019-03-20T09:12:13.669Z,65.26
2019-03-20T09:14:45.280Z,64.00
2019-03-20T09:17:17.222Z,64.04
2019-03-20T09:19:48.537Z,63.74
2019-03-20T09:22:20.156Z,62.68
2019-03-20T09:24:51.438Z,61.22
2019-03-20T09:27:22.953Z,61.26
2019-03-20T09:29:54.327Z,61.06
2019-03-20T09:32:25.815Z,58.87
2019-03-20T09:34:56.811Z,59.63
2019-03-20T09:37:28.014Z,60.18
2019-03-20T09:39:59.596Z,58.25
2019-03-20T09:42:31.077Z,59.33
2019-03-20T09:45:02.525Z,57.43
2019-03-20T09:47:34.031Z,50.56
2019-03-20T09:50:08.266Z,53.39
2019-03-20T09:52:39.874Z,51.46
2019-03-20T09:55:13.951Z,57.44
2019-03-20T09:57:45.242Z,54.65
2019-03-20T10:00:19.620Z,54.36
2019-03-20T10:02:50.988Z,54.21
2019-03-20T10:05:22.285Z,55.48
2019-03-20T10:07:53.286Z,55.93
2019-03-20T10:10:27.725Z,55.64
2019-03-20T10:12:59.079Z,56.21
2019-03-20T10:15:32.083Z,49.23
2019-03-20T10:18:03.221Z,48.57
2019-03-20T10:20:35.588Z,49.54
2019-03-20T10:23:07.612Z,49.50
2019-03-20T10:25:44.433Z,50.08
2019-03-20T10:28:11.539Z,50.06
2019-03-20T10:30:45.161Z,48.53
2019-03-20T10:33:17.374Z,47.56
2019-03-20T10:35:50.427Z,48.78
2019-03-20T10:38:21.854Z,48.63
2019-03-20T10:40:53.344Z,49.39
2019-03-20T10:43:24.550Z,48.38
2019-03-20T10:45:56.548Z,49.11
2019-03-20T10:48:28.395Z,47.64
2019-03-20T10:50:59.368Z,41.96
2019-03-20T10:53:31.186Z,41.26
2019-03-20T10:56:03.067Z,41.94
2019-03-20T10:58:34.375Z,41.72
2019-03-20T11:01:06.205Z,41.30
2019-03-20T11:03:36.885Z,41.52
2019-03-20T11:06:07.917Z,40.75
2019-03-20T11:08:39.520Z,41.12
2019-03-20T11:11:10.887Z,42.27
2019-03-20T11:13:43.629Z,41.85
2019-03-20T11:16:15.198Z,39.47
2019-03-20T11:18:48.625Z,39.55
2019-03-20T11:21:20.325Z,41.18
2019-03-20T11:23:51.445Z,41.93
2019-03-20T11:26:23.431Z,41.42
2019-03-20T11:28:55.104Z,41.39
2019-03-20T11:31:28.097Z,40.20
2019-03-20T11:33:59.980Z,39.06
2019-03-20T11:36:32.859Z,39.25
2019-03-20T11:39:05.466Z,40.44
2019-03-20T11:41:37.780Z,40.66
2019-03-20T11:44:09.466Z,41.80
2019-03-20T11:46:41.182Z,42.53
2019-03-20T11:49:13.242Z,43.32
2019-03-20T11:51:44.726Z,43.21
2019-03-20T11:54:16.316Z,43.41
2019-03-20T11:56:47.515Z,43.16
2019-03-20T11:59:18.935Z,44.36
2019-03-20T12:01:50.306Z,43.59
2019-03-20T12:04:22.502Z,44.22
2019-03-20T12:06:53.993Z,44.52
2019-03-20T12:09:25.629Z,44.97
2019-03-20T12:11:56.756Z,44.59
2019-03-20T12:14:28.148Z,42.84
2019-03-20T12:16:59.702Z,42.30
2019-03-20T12:19:30.838Z,42.07
2019-03-20T12:22:02.405Z,42.98
2019-03-20T12:24:33.726Z,43.14
2019-03-20T12:27:14.687Z,43.18
2019-03-20T12:29:38.302Z,44.22
2019-03-20T12:32:09.968Z,42.13
2019-03-20T12:34:42.011Z,42.91
2019-03-20T12:37:13.326Z,43.50
2019-03-20T12:39:52.815Z,43.54
2019-03-20T12:42:17.739Z,42.06
2019-03-20T12:44:49.341Z,42.99
2019-03-20T12:47:21.072Z,43.41
2019-03-20T12:49:52.478Z,43.54
2019-03-20T12:52:24.193Z,43.22
2019-03-20T12:54:55.593Z,42.28
2019-03-20T12:57:27.326Z,41.28
2019-03-20T12:59:59.610Z,40.82
2019-03-20T13:02:31.319Z,39.80
2019-03-20T13:05:02.878Z,39.50
2019-03-20T13:07:34.760Z,40.46
2019-03-20T13:10:09.378Z,40.03
2019-03-20T13:12:41.927Z,40.09
2019-03-20T13:15:16.191Z,38.31
2019-03-20T13:17:47.730Z,38.52
2019-03-20T13:20:19.097Z,39.85
2019-03-20T13:22:53.538Z,39.00
2019-03-20T13:25:25.073Z,39.14
2019-03-20T13:27:57.761Z,40.44
2019-03-20T13:30:32.250Z,38.80
2019-03-20T13:33:03.850Z,37.78
2019-03-20T13:35:34.952Z,38.22
2019-03-20T13:38:06.453Z,39.03
2019-03-20T13:40:37.723Z,39.39
2019-03-20T13:43:09.339Z,39.86
2019-03-20T13:45:40.683Z,39.57
2019-03-20T13:48:12.079Z,39.68
2019-03-20T13:50:43.065Z,40.28
2019-03-20T13:53:15.482Z,40.16
2019-03-20T13:55:47.073Z,39.86
2019-03-20T13:58:18.381Z,37.79
2019-03-20T14:00:49.744Z,37.47
2019-03-20T14:03:21.182Z,39.28
2019-03-20T14:05:52.786Z,39.84
2019-03-20T14:08:24.040Z,40.42
2019-03-20T14:10:55.283Z,41.10
2019-03-20T14:13:26.724Z,41.01
2019-03-20T14:15:59.065Z,39.45
2019-03-20T14:18:30.838Z,39.64
2019-03-20T14:21:02.066Z,39.90
2019-03-20T14:23:33.131Z,40.26
2019-03-20T14:26:04.001Z,40.69
2019-03-20T14:28:35.063Z,40.09
2019-03-20T14:31:06.335Z,40.50
2019-03-20T14:33:38.134Z,40.12
2019-03-20T14:36:09.445Z,40.23
2019-03-20T14:38:42.146Z,40.62
2019-03-20T14:41:21.215Z,39.62
2019-03-20T14:43:46.111Z,39.67
2019-03-20T14:46:17.373Z,40.08
2019-03-20T14:48:48.835Z,38.86
2019-03-20T14:51:20.708Z,38.71
2019-03-20T14:53:52.554Z,38.67
2019-03-20T14:56:23.906Z,39.45
2019-03-20T14:58:55.065Z,38.88
2019-03-20T15:01:26.483Z,40.49
2019-03-20T15:03:59.958Z,39.75
2019-03-20T15:06:31.310Z,39.79
2019-03-20T15:09:02.348Z,38.75
2019-03-20T15:11:33.850Z,39.22
2019-03-20T15:14:05.740Z,39.49
2019-03-20T15:16:37.404Z,39.10
2019-03-20T15:19:08.874Z,38.21
2019-03-20T15:21:40.313Z,39.37
2019-03-20T15:24:11.494Z,38.91
2019-03-20T15:26:43.680Z,38.83
2019-03-20T15:29:15.096Z,37.49
2019-03-20T15:31:46.724Z,38.33
2019-03-20T15:34:18.577Z,38.00
2019-03-20T15:36:50.224Z,38.28
2019-03-20T15:39:21.694Z,38.16
2019-03-20T15:41:53.404Z,38.71
2019-03-20T15:44:24.748Z,38.97
2019-03-20T15:46:55.683Z,39.93
2019-03-20T15:49:26.997Z,40.81
2019-03-20T15:51:58.119Z,40.95
2019-03-20T15:54:29.432Z,41.66
2019-03-20T15:57:00.630Z,41.51
2019-03-20T15:59:34.488Z,41.97
2019-03-20T16:02:05.766Z,42.87
2019-03-20T16:04:37.520Z,41.58
2019-03-20T16:07:08.893Z,42.32
2019-03-20T16:09:40.254Z,41.49
2019-03-20T16:12:11.632Z,42.62
2019-03-20T16:14:42.795Z,42.55
2019-03-20T16:17:14.158Z,43.19
2019-03-20T16:19:45.379Z,42.76
2019-03-20T16:22:16.466Z,43.41
2019-03-20T16:24:48.082Z,43.57
2019-03-20T16:27:19.443Z,43.66
2019-03-20T16:29:51.854Z,44.53
2019-03-20T16:32:24.484Z,44.51
2019-03-20T16:34:56.307Z,44.93
2019-03-20T16:37:27.690Z,45.37
2019-03-20T16:39:58.877Z,45.60
2019-03-20T16:42:34.222Z,45.55
2019-03-20T16:45:08.720Z,46.26
2019-03-20T16:47:40.117Z,46.43
2019-03-20T16:50:15.135Z,46.33
2019-03-20T16:52:46.986Z,46.77
2019-03-20T16:55:18.950Z,47.09
2019-03-20T16:57:50.190Z,46.80
2019-03-20T17:00:22.846Z,47.12
2019-03-20T17:02:53.897Z,46.99
2019-03-20T17:05:25.823Z,47.41
2019-03-20T17:07:57.376Z,48.02
2019-03-20T17:10:30.016Z,48.18
2019-03-20T17:13:01.881Z,48.31
2019-03-20T17:15:35.543Z,48.72
2019-03-20T17:18:31.271Z,48.65
2019-03-20T17:21:04.094Z,48.99
2019-03-20T17:23:35.597Z,51.19
2019-03-20T17:26:07.325Z,52.10
2019-03-20T17:28:38.762Z,51.60
2019-03-20T17:31:11.682Z,52.38
2019-03-20T17:33:42.878Z,52.87
2019-03-20T17:36:14.415Z,53.05
2019-03-20T17:38:45.738Z,53.19
2019-03-20T17:41:17.220Z,53.79
2019-03-20T17:56:35.563Z,54.04
2019-03-20T18:12:09.125Z,53.88
2019-03-20T18:14:40.447Z,53.80
2019-03-20T18:17:11.730Z,55.04
2019-03-20T18:19:42.733Z,55.47
2019-03-20T18:22:14.156Z,55.01
2019-03-20T18:24:45.111Z,54.33
2019-03-20T18:27:16.632Z,54.80
2019-03-20T18:29:50.827Z,55.41
2019-03-20T18:32:22.399Z,54.41
2019-03-20T18:34:53.548Z,53.76
2019-03-20T18:37:24.780Z,54.44
2019-03-20T18:39:55.632Z,55.73
2019-03-20T18:42:26.717Z,55.42
2019-03-20T18:44:58.433Z,54.75
2019-03-20T18:47:29.919Z,54.01
2019-03-20T18:50:05.449Z,53.02
2019-03-20T18:52:46.670Z,53.94
2019-03-20T18:58:27.440Z,52.83
2019-03-20T19:01:04.131Z,52.46
2019-03-20T19:07:22.472Z,52.69
2019-03-20T19:09:57.513Z,52.41
2019-03-20T19:19:21.373Z,51.95
2019-03-20T19:21:54.279Z,51.80
2019-03-20T19:24:26.086Z,52.11
2019-03-20T19:27:02.775Z,51.91
2019-03-20T19:29:39.645Z,52.01
2019-03-20T19:32:13.518Z,52.41
2019-03-20T19:41:16.582Z,51.84
2019-03-20T20:22:09.970Z,51.54
2019-03-20T20:24:50.404Z,51.43
2019-03-20T20:27:23.095Z,51.09
2019-03-20T20:29:56.560Z,50.78
2019-03-20T23:02:29.807Z,54.61
2019-03-20T23:05:03.416Z,54.35
2019-03-20T23:07:34.796Z,54.34
2019-03-20T23:10:09.843Z,54.64
2019-03-20T23:12:40.793Z,54.72
2019-03-20T23:15:15.005Z,54.81
2019-03-20T23:17:46.393Z,55.16
2019-03-20T23:20:21.332Z,55.37
2019-03-20T23:22:53.649Z,55.53
2019-03-20T23:25:25.689Z,55.80
2019-03-20T23:27:57.082Z,56.00
2019-03-20T23:30:30.087Z,56.21
2019-03-20T23:33:01.469Z,56.61
2019-03-20T23:35:32.772Z,56.63
2019-03-20T23:38:04.067Z,56.95
2019-03-20T23:40:35.373Z,57.10
2019-03-20T23:43:08.876Z,57.38
2019-03-20T23:45:40.038Z,57.51
2019-03-20T23:48:14.709Z,57.57
2019-03-20T23:50:46.387Z,57.88
2019-03-20T23:53:18.755Z,57.92
2019-03-20T23:55:49.734Z,57.92
2019-03-20T23:58:21.908Z,57.96
